Time;durP1;ratioP1;P1;durP2;ratioP2;P2;SDS_P1;SDS_P2;PMS_P1;PMS_P2;Temp;Humidity;BMP_temperature;BMP_pressure;BME280_temperature;BME280_humidity;BME280_pressure;Samples;Min_cycle;Max_cycle;Signal;HPM_P1;HPM_P2
2020/12/11 00:02:22;;;;;;;57.28;26.30;;;;;;;1.52;73.45;99847.19;5062839;28;20818;-72
2020/12/11 00:04:47;;;;;;;64.82;26.15;;;;;;;1.61;73.22;99847.34;5065888;28;20550;-72
2020/12/11 00:07:12;;;;;;;64.93;28.20;;;;;;;1.70;73.43;99841.44;5066380;28;20047;-72
2020/12/11 00:09:38;;;;;;;65.97;24.97;;;;;;;1.71;73.13;99838.88;5064416;28;20082;-72
2020/12/11 00:12:03;;;;;;;67.13;27.00;;;;;;;1.63;72.92;99831.78;5062698;28;20087;-72
2020/12/11 00:14:28;;;;;;;59.10;25.13;;;;;;;1.64;73.17;99833.53;5063005;28;20045;-72
2020/12/11 00:16:54;;;;;;;62.17;26.33;;;;;;;1.70;73.46;99833.63;5066220;28;20114;-72
2020/12/11 00:19:19;;;;;;;67.28;26.95;;;;;;;1.74;73.12;99823.31;5066026;28;20043;-72
2020/12/11 00:21:44;;;;;;;74.53;27.50;;;;;;;1.79;73.05;99819.94;5063622;28;20028;-72
2020/12/11 00:24:11;;;;;;;68.37;26.57;;;;;;;1.77;72.93;99830.31;5062519;28;20491;-72
2020/12/11 00:26:37;;;;;;;66.53;26.67;;;;;;;1.77;72.73;99812.09;5063928;28;20036;-72
2020/12/11 00:29:03;;;;;;;73.80;28.07;;;;;;;1.74;73.26;99815.50;5065704;28;20032;-72
2020/12/11 00:31:28;;;;;;;61.15;26.65;;;;;;;1.71;73.18;99819.78;5065697;28;20119;-72
2020/12/11 00:33:54;;;;;;;69.93;28.50;;;;;;;1.75;73.05;99809.44;5062210;28;20124;-72
2020/12/11 00:36:20;;;;;;;67.10;29.10;;;;;;;1.82;72.93;99817.38;5062443;28;20032;-72
2020/12/11 00:38:46;;;;;;;68.50;27.42;;;;;;;1.84;73.08;99810.50;5064812;28;20041;-72
2020/12/11 00:41:11;;;;;;;72.85;30.52;;;;;;;1.82;72.90;99810.44;5065711;28;20032;-72
2020/12/11 00:43:37;;;;;;;71.20;29.88;;;;;;;1.75;73.17;99801.66;5064107;28;20839;-72
2020/12/11 00:46:02;;;;;;;69.47;26.92;;;;;;;1.76;73.59;99805.16;5062279;28;20120;-72
2020/12/11 00:48:28;;;;;;;66.25;27.98;;;;;;;1.73;73.34;99805.97;5062250;28;20033;-72
2020/12/11 00:50:53;;;;;;;66.70;28.50;;;;;;;1.71;73.38;99805.06;5065337;28;20039;-72
2020/12/11 00:53:18;;;;;;;75.23;28.63;;;;;;;1.68;72.82;99812.81;5053647;28;20040;-72
2020/12/11 00:55:44;;;;;;;71.38;28.35;;;;;;;1.62;73.48;99812.69;5043213;28;20037;-71
2020/12/11 00:58:10;;;;;;;76.18;27.92;;;;;;;1.54;74.15;99806.47;5061457;28;20033;-72
2020/12/11 01:00:35;;;;;;;81.40;30.45;;;;;;;1.62;73.40;99799.69;5063162;28;20036;-72
2020/12/11 01:03:00;;;;;;;77.10;30.35;;;;;;;1.66;73.73;99796.28;5065114;28;20040;-72
2020/12/11 01:05:26;;;;;;;67.85;27.05;;;;;;;1.68;73.59;99802.41;5065406;28;20032;-72
2020/12/11 01:07:51;;;;;;;79.80;32.00;;;;;;;1.69;73.38;99801.53;5060296;28;20032;-72
2020/12/11 01:10:16;;;;;;;73.68;29.77;;;;;;;1.71;73.11;99794.66;5061620;28;20056;-72
2020/12/11 01:12:42;;;;;;;90.93;33.13;;;;;;;1.73;73.86;99794.69;5063695;28;20043;-72
2020/12/11 01:15:07;;;;;;;74.53;29.38;;;;;;;1.72;73.28;99793.78;5065197;28;20036;-72
2020/12/11 01:17:32;;;;;;;79.43;30.30;;;;;;;1.68;73.29;99781.59;5064320;28;20044;-72
2020/12/11 01:19:58;;;;;;;80.60;31.17;;;;;;;1.62;73.82;99784.06;5061457;28;20029;-72
2020/12/11 01:22:23;;;;;;;76.45;30.77;;;;;;;1.62;73.54;99784.06;5061374;28;20075;-72
2020/12/11 01:24:48;;;;;;;80.70;31.97;;;;;;;1.66;73.99;99780.69;5064463;28;20040;-72
2020/12/11 01:27:13;;;;;;;80.40;30.87;;;;;;;1.72;74.00;99788.59;5063665;28;20051;-72
2020/12/11 01:29:39;;;;;;;73.53;30.08;;;;;;;1.77;73.29;99782.59;5063025;28;20033;-72
2020/12/11 01:32:04;;;;;;;78.28;30.80;;;;;;;1.81;73.17;99787.91;5061227;28;20041;-72
2020/12/11 01:34:30;;;;;;;77.90;31.80;;;;;;;1.78;73.67;99781.75;5061655;28;20056;-72
2020/12/11 01:36:55;;;;;;;76.93;29.73;;;;;;;1.70;73.59;99782.50;5064792;28;20119;-72
2020/12/11 01:39:20;;;;;;;72.97;28.67;;;;;;;1.70;73.46;99779.91;5064287;28;20175;-72
2020/12/11 01:41:50;;;;;;;79.30;31.33;;;;;;;1.67;73.17;99785.03;5061934;28;20041;-72
2020/12/11 01:44:16;;;;;;;71.63;29.80;;;;;;;1.72;73.81;99779.91;5061141;28;20037;-72
2020/12/11 01:46:41;;;;;;;78.40;31.07;;;;;;;1.77;73.31;99774.78;5063163;28;20449;-72
2020/12/11 01:49:08;;;;;;;83.18;33.28;;;;;;;1.81;73.32;99772.28;5064218;28;20040;-72
2020/12/11 01:51:35;;;;;;;70.65;30.05;;;;;;;1.80;73.28;99772.25;5063372;28;20037;-72
2020/12/11 01:54:01;;;;;;;86.57;35.70;;;;;;;1.83;73.23;99777.50;5060751;28;20040;-72
2020/12/11 01:56:31;;;;;;;77.97;31.30;;;;;;;1.84;73.11;99774.06;5059806;28;20072;-72
2020/12/11 01:59:02;;;;;;;73.57;28.92;;;;;;;1.86;73.40;99778.44;5064312;28;20032;-72
2020/12/11 02:01:34;;;;;;;76.68;30.85;;;;;;;1.85;73.56;99771.47;5062875;28;20036;-72
2020/12/11 02:03:59;;;;;;;72.50;31.13;;;;;;;1.83;73.27;99773.16;5060466;28;20033;-72
2020/12/11 02:06:25;;;;;;;76.20;31.77;;;;;;;1.81;73.07;99769.69;5060666;28;20029;-72
2020/12/11 02:08:58;;;;;;;64.22;28.67;;;;;;;1.83;72.98;99769.69;5062760;28;20043;-72
2020/12/11 02:11:24;;;;;;;74.63;30.48;;;;;;;1.84;73.17;99768.84;5064078;28;20487;-72
2020/12/11 02:13:50;;;;;;;66.53;28.87;;;;;;;1.81;73.01;99768.78;5060661;28;20044;-72
2020/12/11 02:16:22;;;;;;;68.18;27.75;;;;;;;1.72;73.81;99759.09;5060479;28;20467;-72
2020/12/11 02:18:48;;;;;;;65.03;28.38;;;;;;;1.66;73.26;99757.28;5063248;28;20037;-72
2020/12/11 02:21:14;;;;;;;57.90;28.83;;;;;;;1.75;73.25;99762.63;5063757;28;20081;-72
2020/12/11 02:23:42;;;;;;;66.60;29.43;;;;;;;1.78;73.36;99759.19;5060565;28;20037;-72
2020/12/11 02:26:07;;;;;;;63.23;28.50;;;;;;;1.81;73.74;99755.78;5060314;28;20084;-72
2020/12/11 02:28:33;;;;;;;58.20;27.17;;;;;;;1.83;72.68;99757.53;5060906;28;20041;-72
2020/12/11 02:30:59;;;;;;;58.40;26.00;;;;;;;1.86;72.95;99751.53;5063615;28;20039;-72
2020/12/11 02:33:24;;;;;;;59.65;29.25;;;;;;;1.86;72.62;99751.53;5063309;28;20111;-72
2020/12/11 02:35:50;;;;;;;54.03;25.67;;;;;;;1.87;73.39;99754.16;5060470;28;20132;-72
2020/12/11 02:38:15;;;;;;;59.15;26.42;;;;;;;1.84;73.06;99745.44;5060251;28;20086;-72
2020/12/11 02:40:48;;;;;;;62.92;27.38;;;;;;;1.82;72.74;99741.94;5061752;28;20035;-72
2020/12/11 02:43:14;;;;;;;66.13;28.83;;;;;;;1.87;72.59;99737.69;5063251;28;20033;-72
2020/12/11 02:45:40;;;;;;;57.15;26.67;;;;;;;1.91;72.80;99734.25;5061784;28;20135;-72
2020/12/11 02:48:05;;;;;;;62.83;27.90;;;;;;;1.90;72.56;99730.78;5059719;28;20474;-72
2020/12/11 02:50:30;;;;;;;62.08;28.75;;;;;;;1.93;72.66;99727.34;5060298;28;20132;-72
2020/12/11 02:52:55;;;;;;;52.38;24.20;;;;;;;1.94;72.49;99729.13;5063051;28;20036;-72
2020/12/11 02:55:21;;;;;;;62.75;26.50;;;;;;;1.88;73.34;99723.81;5057227;28;20044;-72
2020/12/11 02:57:46;;;;;;;64.68;28.17;;;;;;;1.89;73.03;99733.38;5060614;28;20136;-72
2020/12/11 03:00:11;;;;;;;57.17;25.38;;;;;;;1.90;72.74;99722.09;5059688;28;20029;-72
2020/12/11 03:02:37;;;;;;;60.25;27.13;;;;;;;1.90;72.97;99716.91;5043080;28;20111;-73
2020/12/11 03:05:02;;;;;;;70.93;31.15;;;;;;;1.94;73.03;99714.38;5063325;28;20056;-72
2020/12/11 03:07:27;;;;;;;59.30;27.93;;;;;;;1.94;72.96;99713.50;5062880;28;20040;-72
2020/12/11 03:09:53;;;;;;;63.78;28.13;;;;;;;1.93;73.07;99703.94;5059442;28;20052;-72
2020/12/11 03:12:18;;;;;;;65.80;28.20;;;;;;;1.92;73.22;99694.38;5059285;28;20037;-72
2020/12/11 03:14:43;;;;;;;72.50;30.58;;;;;;;1.95;72.79;99697.91;5061847;28;20050;-73
2020/12/11 03:17:09;;;;;;;61.03;29.10;;;;;;;1.98;73.00;99697.94;5062885;28;20397;-72
2020/12/11 03:19:34;;;;;;;61.25;28.35;;;;;;;1.92;73.25;99692.66;5061581;28;20388;-72
2020/12/11 03:21:59;;;;;;;61.08;27.40;;;;;;;1.92;73.22;99689.19;5059377;28;20044;-72
2020/12/11 03:24:25;;;;;;;89.50;39.45;;;;;;;1.97;73.54;99687.53;5059254;28;20029;-73
2020/12/11 03:26:50;;;;;;;91.20;37.28;;;;;;;2.06;74.11;99686.78;5061489;28;20040;-73
2020/12/11 03:29:15;;;;;;;90.40;37.40;;;;;;;2.12;73.36;99684.25;5061549;28;20055;-72
2020/12/11 03:31:41;;;;;;;100.65;38.47;;;;;;;2.12;73.98;99682.56;5060810;28;20445;-72
2020/12/11 03:34:06;;;;;;;91.70;36.67;;;;;;;2.10;73.85;99689.47;5059071;28;20508;-73
2020/12/11 03:36:31;;;;;;;82.43;31.85;;;;;;;2.11;73.03;99685.13;5061617;28;20514;-73
2020/12/11 03:38:57;;;;;;;69.20;30.75;;;;;;;2.10;72.77;99679.03;5070740;28;20040;-72
2020/12/11 03:41:22;;;;;;;68.18;31.85;;;;;;;2.08;72.92;99679.88;5062534;28;20056;-73
2020/12/11 03:43:47;;;;;;;75.55;31.20;;;;;;;2.04;72.89;99684.16;5059642;28;20037;-72
2020/12/11 03:46:21;;;;;;;70.70;29.60;;;;;;;2.03;72.66;99682.41;5059165;28;20112;-72
2020/12/11 03:48:48;;;;;;;68.10;27.60;;;;;;;2.07;73.17;99684.22;5061685;28;20124;-72
2020/12/11 03:51:24;;;;;;;67.60;31.30;;;;;;;1.97;73.47;99675.38;5062503;28;20044;-72
2020/12/11 03:53:49;;;;;;;68.90;28.55;;;;;;;2.03;73.33;99686.75;5059291;28;20087;-72
2020/12/11 03:56:15;;;;;;;68.13;28.55;;;;;;;2.03;73.02;99681.53;5059197;28;20111;-72
2020/12/11 03:58:41;;;;;;;69.80;29.20;;;;;;;2.03;73.06;99681.53;5061018;28;20033;-72
2020/12/11 04:01:11;;;;;;;66.20;29.17;;;;;;;2.05;72.99;99677.25;5062492;28;20047;-72
2020/12/11 04:03:36;;;;;;;65.03;29.65;;;;;;;2.04;73.48;99665.06;5060983;28;20062;-72
2020/12/11 04:06:05;;;;;;;70.40;29.00;;;;;;;2.00;73.68;99671.97;5058791;28;20405;-73
2020/12/11 04:08:30;;;;;;;61.33;28.80;;;;;;;2.05;73.28;99667.69;5059162;28;20033;-72
2020/12/11 04:10:56;;;;;;;62.53;28.48;;;;;;;2.11;73.11;99672.09;5062372;28;20047;-72
2020/12/11 04:13:21;;;;;;;68.45;29.38;;;;;;;2.12;73.00;99666.03;5062203;28;20432;-73
2020/12/11 04:15:46;;;;;;;74.18;33.28;;;;;;;2.09;73.29;99664.25;5055556;28;20412;-73
2020/12/11 04:18:12;;;;;;;63.40;29.85;;;;;;;2.14;72.63;99654.78;5061064;28;20501;-72
2020/12/11 04:20:37;;;;;;;69.38;29.00;;;;;;;2.18;72.56;99661.81;5060721;28;20127;-73
2020/12/11 04:23:02;;;;;;;66.82;29.15;;;;;;;2.22;72.66;99641.88;5058606;28;20033;-72
2020/12/11 04:25:27;;;;;;;70.95;30.27;;;;;;;2.21;72.72;99645.34;5058809;28;20044;-72
2020/12/11 04:27:53;;;;;;;67.68;29.70;;;;;;;2.20;72.46;99640.97;5062279;28;20052;-72
2020/12/11 04:30:18;;;;;;;79.25;34.00;;;;;;;2.13;72.62;99632.22;5062372;28;20439;-72
2020/12/11 04:32:43;;;;;;;72.68;29.88;;;;;;;2.15;73.03;99634.88;5062212;28;20579;-72
2020/12/11 04:35:09;;;;;;;67.30;29.02;;;;;;;2.17;72.63;99630.53;5061025;28;20044;-72
2020/12/11 04:37:34;;;;;;;68.07;29.70;;;;;;;2.19;73.11;99632.31;5063373;28;20090;-72
2020/12/11 04:39:59;;;;;;;73.00;29.67;;;;;;;2.22;72.54;99630.59;5065606;28;20149;-72
2020/12/11 04:42:26;;;;;;;69.17;32.57;;;;;;;2.22;72.79;99630.59;5065567;28;20041;-72
2020/12/11 04:44:52;;;;;;;65.70;30.10;;;;;;;2.23;72.41;99633.22;5060928;28;20033;-72
2020/12/11 04:47:20;;;;;;;68.68;29.70;;;;;;;2.24;72.48;99624.56;5062244;28;20036;-72
2020/12/11 04:49:45;;;;;;;62.85;30.23;;;;;;;2.22;72.69;99625.38;5064416;28;20110;-73
2020/12/11 04:52:12;;;;;;;64.25;29.35;;;;;;;2.25;72.19;99617.63;5064132;28;20060;-73
2020/12/11 04:54:38;;;;;;;69.82;29.52;;;;;;;2.26;72.49;99606.38;5061851;28;20107;-73
2020/12/11 04:57:09;;;;;;;59.53;25.48;;;;;;;2.21;72.36;99608.91;5062148;28;20166;-73
2020/12/11 04:59:34;;;;;;;66.82;29.77;;;;;;;2.15;72.47;99598.44;5062988;28;20037;-73
2020/12/11 05:02:00;;;;;;;64.97;28.35;;;;;;;2.10;72.46;99590.53;5064157;28;20040;-73
2020/12/11 05:04:25;;;;;;;63.22;27.20;;;;;;;2.03;72.56;99583.50;5065068;28;20040;-73
2020/12/11 05:06:51;;;;;;;63.95;28.30;;;;;;;1.97;72.77;99575.63;5062161;28;20028;-72
2020/12/11 05:09:20;;;;;;;60.85;27.15;;;;;;;1.87;72.42;99576.34;5061648;28;20071;-72
2020/12/11 05:11:47;;;;;;;65.05;28.17;;;;;;;1.71;73.04;99570.06;5064294;28;20119;-72
2020/12/11 05:14:25;;;;;;;68.37;28.50;;;;;;;1.52;73.33;99574.13;5064876;28;20421;-72
2020/12/11 05:17:04;;;;;;;56.40;25.87;;;;;;;1.34;73.03;99579.03;5060524;28;20033;-72
2020/12/11 05:19:49;;;;;;;57.70;25.60;;;;;;;1.18;74.00;99576.22;5061926;28;20037;-72
2020/12/11 05:22:15;;;;;;;60.47;27.37;;;;;;;1.08;74.52;99571.72;5064870;28;20664;-72
2020/12/11 05:24:52;;;;;;;61.43;27.77;;;;;;;1.00;74.95;99574.19;5062151;28;20025;-70
2020/12/11 05:27:32;;;;;;;58.57;25.47;;;;;;;0.97;74.96;99568.94;5050564;28;20051;-70
2020/12/11 05:30:19;;;;;;;56.43;25.13;;;;;;;0.75;75.49;99561.59;5050544;28;20048;-70
2020/12/11 05:32:49;;;;;;;62.87;26.27;;;;;;;0.68;75.92;99565.78;5062378;28;20049;-70
2020/12/11 05:35:14;;;;;;;63.40;26.77;;;;;;;0.67;76.36;99558.88;5064707;28;20028;-70
2020/12/11 05:38:02;;;;;;;57.27;26.17;;;;;;;0.67;76.08;99552.81;5062905;28;20513;-70
2020/12/11 05:40:30;;;;;;;62.73;26.80;;;;;;;0.73;76.92;99548.56;5061050;28;20041;-70
2020/12/11 05:43:06;;;;;;;61.20;26.60;;;;;;;0.85;76.12;99542.72;5064188;28;20043;-71
2020/12/11 05:45:36;;;;;;;65.33;29.23;;;;;;;0.98;76.02;99549.88;5063949;28;20104;-70
2020/12/11 05:48:03;;;;;;;62.13;27.00;;;;;;;1.10;75.86;99546.59;5060899;28;20040;-71
2020/12/11 05:50:28;;;;;;;63.47;27.40;;;;;;;1.15;75.97;99538.88;5051121;28;20041;-70
2020/12/11 05:52:54;;;;;;;62.03;27.43;;;;;;;1.24;75.85;99542.50;5053043;28;20037;-70
2020/12/11 05:55:21;;;;;;;75.63;31.20;;;;;;;1.30;75.42;99542.59;5060623;28;20041;-71
2020/12/11 05:57:51;;;;;;;54.97;25.97;;;;;;;1.38;75.49;99541.84;5055894;28;20072;-70
2020/12/11 06:00:17;;;;;;;59.83;26.60;;;;;;;1.46;75.08;99548.03;5063620;28;20036;-70
2020/12/11 06:02:45;;;;;;;56.07;24.00;;;;;;;1.52;75.00;99559.41;5064411;28;20544;-70
2020/12/11 06:05:13;;;;;;;63.37;26.23;;;;;;;1.58;74.80;99556.00;5068137;28;20044;-71
2020/12/11 06:07:42;;;;;;;62.20;27.35;;;;;;;1.61;74.63;99547.38;5070738;28;20051;-71
2020/12/11 06:10:08;;;;;;;60.33;24.93;;;;;;;1.65;74.96;99552.66;5063178;28;20032;-71
2020/12/11 06:12:33;;;;;;;59.87;26.47;;;;;;;1.69;74.57;99553.56;5048790;28;20051;-71
2020/12/11 06:15:17;;;;;;;52.03;25.40;;;;;;;1.60;74.99;99561.22;5054626;28;20040;-70
2020/12/11 06:17:47;;;;;;;67.22;25.17;;;;;;;1.63;74.43;99564.75;5063195;28;20032;-71
2020/12/11 06:20:15;;;;;;;56.17;24.17;;;;;;;1.72;74.83;99554.47;5064297;28;20029;-71
2020/12/11 06:22:44;;;;;;;57.60;25.27;;;;;;;1.76;74.43;99555.41;5060040;28;20063;-70
2020/12/11 06:25:26;;;;;;;64.20;28.45;;;;;;;1.74;74.85;99559.69;5061805;28;20047;-69
2020/12/11 06:27:52;;;;;;;55.53;25.08;;;;;;;1.84;74.79;99560.72;5058350;28;20076;-69
2020/12/11 06:30:25;;;;;;;59.57;25.50;;;;;;;1.92;73.89;99559.06;5058363;28;20025;-70
2020/12/11 06:32:52;;;;;;;53.92;25.17;;;;;;;1.94;74.13;99558.25;5062531;28;20029;-70
2020/12/11 06:35:17;;;;;;;61.60;27.95;;;;;;;1.95;74.28;99565.19;5063626;28;20498;-69
2020/12/11 06:37:43;;;;;;;58.60;27.05;;;;;;;1.97;74.23;99547.88;5061785;28;20033;-69
2020/12/11 06:40:08;;;;;;;66.88;27.67;;;;;;;2.00;73.84;99549.63;5071110;28;20036;-70
2020/12/11 06:42:37;;;;;;;63.58;28.25;;;;;;;2.03;73.54;99546.19;5071246;28;20040;-70
2020/12/11 06:45:19;;;;;;;62.50;26.50;;;;;;;2.08;73.47;99548.00;5071593;28;20028;-69
2020/12/11 06:47:48;;;;;;;63.38;27.33;;;;;;;2.12;73.01;99541.09;5063290;28;20093;-70
2020/12/11 06:50:13;;;;;;;65.25;26.98;;;;;;;2.14;73.66;99532.44;5071234;28;20483;-70
2020/12/11 06:52:39;;;;;;;62.25;26.75;;;;;;;2.16;73.26;99537.69;5063021;28;20035;-70
2020/12/11 06:55:04;;;;;;;63.55;25.92;;;;;;;2.17;73.06;99529.91;5064650;28;20063;-69
2020/12/11 06:57:35;;;;;;;56.67;25.02;;;;;;;2.22;73.42;99539.47;5071115;28;20044;-70
2020/12/11 07:00:24;;;;;;;63.10;26.67;;;;;;;2.22;73.09;99547.28;5059705;28;20047;-70
2020/12/11 07:03:12;;;;;;;70.45;29.30;;;;;;;2.24;72.98;99542.97;5062674;28;20368;-70
2020/12/11 07:05:37;;;;;;;66.00;26.75;;;;;;;2.23;73.02;99531.69;5061709;28;20089;-70
2020/12/11 07:08:03;;;;;;;58.65;26.30;;;;;;;2.20;73.29;99531.63;5059396;28;20033;-70
2020/12/11 07:10:28;;;;;;;62.67;27.80;;;;;;;2.22;72.88;99531.66;5059384;28;20123;-69
2020/12/11 07:12:53;;;;;;;59.80;28.50;;;;;;;2.20;73.16;99523.81;5059242;28;20180;-69
2020/12/11 07:15:19;;;;;;;55.40;25.40;;;;;;;2.18;73.04;99523.84;5061154;28;20127;-69
2020/12/11 07:17:48;;;;;;;63.35;27.50;;;;;;;2.22;73.04;99521.25;5058616;28;20543;-70
2020/12/11 07:20:13;;;;;;;68.38;28.15;;;;;;;2.16;73.25;99525.53;5057481;28;20090;-70
2020/12/11 07:22:39;;;;;;;65.88;26.50;;;;;;;2.19;72.89;99527.31;5058813;28;20028;-70
2020/12/11 07:25:04;;;;;;;61.10;26.15;;;;;;;2.18;72.91;99521.22;5061022;28;20380;-69
2020/12/11 07:27:29;;;;;;;72.10;29.77;;;;;;;2.20;72.95;99513.41;5060640;28;20036;-70
2020/12/11 07:29:54;;;;;;;56.53;25.38;;;;;;;2.15;73.27;99515.13;5058894;28;20041;-70
2020/12/11 07:32:21;;;;;;;61.05;26.98;;;;;;;2.14;72.96;99518.56;5065304;28;20056;-70
2020/12/11 07:34:47;;;;;;;60.55;26.00;;;;;;;2.19;73.06;99516.88;5070680;28;20032;-69
2020/12/11 07:37:13;;;;;;;62.80;25.58;;;;;;;2.21;73.02;99515.19;5070703;28;20051;-70
2020/12/11 07:39:38;;;;;;;65.10;27.83;;;;;;;2.22;73.28;99521.25;5070514;28;20123;-70
2020/12/11 07:42:05;;;;;;;73.50;33.70;;;;;;;2.24;72.93;99519.56;5065899;28;20037;-69
2020/12/11 07:44:32;;;;;;;65.70;27.05;;;;;;;2.29;72.77;99523.09;5067587;28;20028;-70
2020/12/11 07:47:16;;;;;;;69.93;29.90;;;;;;;2.33;73.01;99519.63;5065447;28;20040;-70
2020/12/11 07:49:44;;;;;;;57.60;24.92;;;;;;;2.34;72.77;99513.59;5059005;28;20036;-70
2020/12/11 07:52:11;;;;;;;56.08;25.90;;;;;;;2.38;72.71;99513.66;5060615;28;20029;-69
2020/12/11 07:54:41;;;;;;;56.90;26.25;;;;;;;2.42;72.63;99514.53;5059392;28;20066;-70
2020/12/11 07:57:08;;;;;;;58.35;26.30;;;;;;;2.48;72.21;99512.00;5057164;28;20407;-69
2020/12/11 07:59:33;;;;;;;60.88;26.45;;;;;;;2.49;72.78;99511.16;5057714;28;20037;-70
2020/12/11 08:01:59;;;;;;;64.00;27.63;;;;;;;2.53;72.53;99502.50;5061358;28;20055;-69
2020/12/11 08:04:24;;;;;;;63.30;27.30;;;;;;;2.58;72.37;99513.81;5060956;28;20410;-69
2020/12/11 08:06:59;;;;;;;61.92;26.90;;;;;;;2.57;72.38;99509.50;5060500;28;20400;-70
2020/12/11 08:09:32;;;;;;;60.05;26.65;;;;;;;2.58;72.47;99505.16;5062741;28;20115;-70
2020/12/11 08:12:20;;;;;;;62.38;26.33;;;;;;;2.63;72.62;99504.31;5055223;28;20088;-70
2020/12/11 08:14:46;;;;;;;51.78;25.63;;;;;;;2.71;72.06;99506.13;5065199;28;20036;-70
2020/12/11 08:17:13;;;;;;;59.63;25.23;;;;;;;2.79;71.78;99499.25;5067450;28;20439;-70
2020/12/11 08:19:43;;;;;;;58.65;26.67;;;;;;;2.82;71.66;99497.53;5070880;28;20033;-70
2020/12/11 08:22:12;;;;;;;68.72;28.00;;;;;;;2.98;71.39;99495.06;5073908;28;20041;-70
2020/12/11 08:24:38;;;;;;;62.92;26.02;;;;;;;3.06;71.32;99488.16;5068120;28;20111;-70
2020/12/11 08:27:03;;;;;;;63.83;28.17;;;;;;;3.08;71.49;99492.53;5070539;28;20064;-70
2020/12/11 08:29:29;;;;;;;60.63;26.63;;;;;;;3.02;71.45;99492.50;5072300;28;20491;-70
2020/12/11 08:31:54;;;;;;;65.13;28.08;;;;;;;2.94;71.54;99486.34;5062209;28;20680;-70
2020/12/11 08:34:19;;;;;;;61.25;26.95;;;;;;;2.88;71.63;99483.69;5064869;28;20032;-70
2020/12/11 08:36:46;;;;;;;63.95;27.25;;;;;;;2.80;71.69;99490.56;5071405;28;20062;-70
2020/12/11 08:39:19;;;;;;;53.40;25.38;;;;;;;2.73;71.91;99487.06;5060163;28;20041;-69
2020/12/11 08:42:08;;;;;;;60.95;28.48;;;;;;;2.62;72.33;99486.97;5062999;28;20037;-70
2020/12/11 08:47:15;;;;;;;60.42;28.20;;;;;;;2.55;72.56;99495.56;5055576;28;20120;-70
2020/12/11 08:49:43;;;;;;;58.83;27.52;;;;;;;2.49;73.09;99489.41;5058522;28;20052;-69
2020/12/11 08:52:09;;;;;;;65.28;27.40;;;;;;;2.52;73.49;99492.06;5073433;28;20116;-70
2020/12/11 08:54:35;;;;;;;56.95;26.52;;;;;;;2.50;73.14;99486.84;5064410;28;20399;-69
2020/12/11 08:57:00;;;;;;;69.22;30.15;;;;;;;2.50;72.90;99488.56;5073637;28;20036;-70
2020/12/11 08:59:25;;;;;;;62.15;29.27;;;;;;;2.51;73.35;99492.91;5065545;28;20032;-69
2020/12/11 09:01:51;;;;;;;60.88;25.63;;;;;;;2.47;73.04;99496.38;5065127;28;20036;-70
2020/12/11 09:04:16;;;;;;;66.15;30.52;;;;;;;2.46;73.57;99490.25;5065143;28;20113;-69
2020/12/11 09:06:44;;;;;;;63.00;27.92;;;;;;;2.45;74.24;99490.25;5063423;28;20038;-69
2020/12/11 09:09:09;;;;;;;78.53;32.08;;;;;;;2.53;74.53;99489.47;5061499;28;20033;-70
2020/12/11 09:11:34;;;;;;;75.82;33.58;;;;;;;2.73;74.33;99491.41;5062594;28;20040;-70
2020/12/11 09:14:00;;;;;;;71.53;34.20;;;;;;;2.97;74.04;99483.78;5064884;28;20036;-70
2020/12/11 09:16:25;;;;;;;68.55;31.23;;;;;;;3.16;73.65;99487.38;5065020;28;20050;-71
2020/12/11 09:18:50;;;;;;;69.43;31.17;;;;;;;3.32;72.89;99492.69;5061452;28;20044;-70
2020/12/11 09:21:16;;;;;;;61.40;28.77;;;;;;;3.44;72.80;99487.56;5061462;28;20033;-70
2020/12/11 09:23:41;;;;;;;65.40;29.05;;;;;;;3.57;72.24;99485.91;5062823;28;20040;-70
2020/12/11 09:26:06;;;;;;;72.20;31.55;;;;;;;3.67;72.10;99482.47;5064882;28;20043;-70
2020/12/11 09:28:32;;;;;;;64.47;29.95;;;;;;;3.74;71.49;99477.28;5064247;28;20032;-69
2020/12/11 09:30:57;;;;;;;62.15;28.38;;;;;;;3.78;71.33;99475.56;5063080;28;20487;-70
2020/12/11 09:33:25;;;;;;;70.38;30.92;;;;;;;3.88;71.37;99482.56;5072090;28;20142;-70
2020/12/11 09:35:51;;;;;;;61.78;27.83;;;;;;;3.98;71.50;99473.00;5062748;28;20078;-70
2020/12/11 09:38:16;;;;;;;70.07;30.05;;;;;;;4.05;70.60;99466.09;5063045;28;20058;-70
2020/12/11 09:40:58;;;;;;;64.68;29.52;;;;;;;4.11;70.72;99459.16;5060727;28;20094;-70
2020/12/11 09:48:52;;;;;;;56.13;27.23;;;;;;;4.31;70.06;99451.34;5060648;28;20037;-70
2020/12/11 09:56:25;;;;;;;61.97;28.75;;;;;;;4.45;69.85;99434.81;5060799;28;20144;-70
2020/12/11 09:58:55;;;;;;;57.88;28.42;;;;;;;4.52;69.62;99436.59;5063776;28;20055;-70
2020/12/11 10:01:57;;;;;;;60.88;28.58;;;;;;;4.53;69.81;99427.84;5064219;28;20512;-70
2020/12/11 10:04:22;;;;;;;62.70;28.30;;;;;;;4.47;69.95;99425.25;5059041;28;20115;-70
2020/12/11 10:06:47;;;;;;;65.78;30.23;;;;;;;4.50;70.18;99420.88;5066451;28;20097;-70
2020/12/11 10:09:13;;;;;;;67.60;31.88;;;;;;;4.56;70.29;99420.03;5071739;28;20119;-70
2020/12/11 10:11:38;;;;;;;59.78;29.05;;;;;;;4.68;69.84;99419.16;5072212;28;20043;-69
2020/12/11 10:14:16;;;;;;;69.47;31.98;;;;;;;4.79;69.77;99418.31;5054186;28;20041;-70
2020/12/11 10:16:42;;;;;;;65.03;30.15;;;;;;;4.81;69.86;99406.06;5068666;28;20510;-70
2020/12/11 10:19:08;;;;;;;63.58;28.85;;;;;;;4.86;69.01;99405.22;5066675;28;20434;-70
2020/12/11 10:21:33;;;;;;;68.55;32.40;;;;;;;4.96;69.36;99399.09;5061012;28;20106;-70
2020/12/11 10:23:58;;;;;;;69.13;32.22;;;;;;;5.04;69.00;99399.97;5063457;28;20517;-70
2020/12/11 10:26:24;;;;;;;62.50;29.38;;;;;;;5.13;68.34;99386.84;5063776;28;20041;-70
2020/12/11 10:28:50;;;;;;;68.30;32.75;;;;;;;5.13;68.52;99379.00;5060049;28;20036;-70
2020/12/11 10:31:15;;;;;;;60.92;28.70;;;;;;;5.17;68.44;99375.50;5059842;28;20515;-70
2020/12/11 10:33:40;;;;;;;64.95;32.90;;;;;;;5.21;68.34;99372.03;5061626;28;20503;-70
2020/12/11 10:36:06;;;;;;;55.55;29.63;;;;;;;5.28;68.32;99373.72;5063569;28;20435;-70
2020/12/11 10:38:31;;;;;;;73.03;35.72;;;;;;;5.41;68.57;99361.47;5063012;28;20032;-69
2020/12/11 10:40:56;;;;;;;76.90;37.17;;;;;;;5.49;68.21;99354.47;5059916;28;20186;-70
2020/12/11 10:43:22;;;;;;;70.47;33.40;;;;;;;5.56;68.20;99349.22;5059528;28;20112;-70
2020/12/11 10:45:47;;;;;;;65.93;34.80;;;;;;;5.62;67.49;99344.81;5059437;28;20131;-69
2020/12/11 10:48:12;;;;;;;66.32;34.47;;;;;;;5.63;67.67;99338.72;5060321;28;20112;-70
2020/12/11 10:50:38;;;;;;;72.85;37.70;;;;;;;5.65;67.49;99329.06;5063485;28;20033;-70
2020/12/11 10:53:03;;;;;;;70.20;36.35;;;;;;;5.69;67.69;99336.03;5066349;28;20040;-70
2020/12/11 10:55:28;;;;;;;67.82;35.83;;;;;;;5.70;67.34;99331.69;5066699;28;20029;-70
2020/12/11 10:57:54;;;;;;;73.80;38.83;;;;;;;5.73;67.57;99334.28;5059946;28;20447;-69
2020/12/11 11:00:20;;;;;;;70.28;37.88;;;;;;;5.66;67.54;99337.81;5059698;28;20103;-70
2020/12/11 11:02:45;;;;;;;66.68;35.13;;;;;;;5.63;67.73;99322.09;5061851;28;20035;-70
2020/12/11 11:05:11;;;;;;;67.45;35.45;;;;;;;5.60;67.19;99323.00;5063080;28;20047;-69
2020/12/11 11:07:36;;;;;;;65.50;34.95;;;;;;;5.61;67.78;99310.81;5061949;28;20036;-70
2020/12/11 11:12:50;;;;;;;64.45;34.17;;;;;;;5.50;67.99;99313.44;5058527;28;20100;-72
2020/12/11 11:18:04;;;;;;;64.32;35.53;;;;;;;5.39;68.35;99312.63;5050205;28;20041;-72
2020/12/11 11:23:18;;;;;;;68.53;34.83;;;;;;;5.42;67.90;99299.53;5066857;28;20052;-71
2020/12/11 11:26:03;;;;;;;70.85;37.13;;;;;;;5.51;68.26;99289.03;5058576;28;20045;-70
2020/12/11 11:28:28;;;;;;;62.25;31.05;;;;;;;5.54;67.75;99289.00;5059363;28;20068;-70
2020/12/11 11:30:54;;;;;;;74.22;31.75;;;;;;;5.55;67.97;99290.75;5062707;28;20064;-70
2020/12/11 11:33:19;;;;;;;65.10;29.40;;;;;;;5.48;67.45;99281.22;5060865;28;20075;-69
2020/12/11 11:35:46;;;;;;;64.13;31.10;;;;;;;5.42;67.92;99274.25;5059177;28;20044;-70
2020/12/11 11:38:12;;;;;;;73.60;31.35;;;;;;;5.45;68.04;99279.47;5059136;28;20037;-71
2020/12/11 11:40:39;;;;;;;59.75;29.60;;;;;;;5.45;68.27;99276.00;5059755;28;20079;-70
2020/12/11 11:43:05;;;;;;;63.15;32.35;;;;;;;5.48;68.22;99274.22;5063620;28;20064;-70
2020/12/11 11:45:35;;;;;;;63.58;30.25;;;;;;;5.45;68.24;99274.25;5050144;28;20033;-71
2020/12/11 11:48:01;;;;;;;63.05;29.27;;;;;;;5.45;68.35;99268.16;5060402;28;20041;-71